Time;durP1;ratioP1;P1;durP2;ratioP2;P2;SDS_P1;SDS_P2;PMS_P1;PMS_P2;Temp;Humidity;BMP_temperature;BMP_pressure;BME280_temperature;BME280_humidity;BME280_pressure;Samples;Min_cycle;Max_cycle;Signal;HPM_P1;HPM_P2
2022/12/03 00:00:39;;;;;;;;;;;16.40;65.40;;;;;;10316207;28;20026;-66
2022/12/03 00:05:40;;;;;;;;;;;16.40;65.60;;;;;;10298109;28;19935;-66
2022/12/03 00:10:49;;;;;;;;;;;16.40;65.60;;;;;;10313728;28;19977;-66
2022/12/03 00:15:51;;;;;;;;;;;16.40;65.70;;;;;;10300343;28;19935;-66
2022/12/03 00:20:53;;;;;;;;;;;16.40;65.60;;;;;;10298853;28;19981;-66
2022/12/03 00:25:55;;;;;;;;;;;16.30;65.50;;;;;;10300581;28;19941;-66
2022/12/03 00:30:56;;;;;;;;;;;16.40;65.70;;;;;;10299400;28;20310;-67
2022/12/03 00:35:58;;;;;;;;;;;16.30;65.50;;;;;;10299814;28;19950;-66
2022/12/03 00:41:00;;;;;;;;;;;16.30;65.50;;;;;;10299255;28;20341;-66
2022/12/03 00:46:02;;;;;;;;;;;16.40;65.60;;;;;;10299943;28;20050;-66
2022/12/03 00:51:03;;;;;;;;;;;16.30;65.50;;;;;;10299120;28;19934;-66
2022/12/03 00:56:05;;;;;;;;;;;16.30;65.30;;;;;;10305758;28;19934;-66
2022/12/03 01:01:07;;;;;;;;;;;16.40;65.30;;;;;;10306855;28;20514;-65
2022/12/03 01:06:09;;;;;;;;;;;16.30;65.30;;;;;;10305387;28;20405;-65
2022/12/03 01:16:31;;;;;;;;;;;16.30;65.50;;;;;;10304879;28;19966;-66
2022/12/03 01:21:33;;;;;;;;;;;16.30;65.50;;;;;;10305681;28;20625;-65
2022/12/03 01:26:35;;;;;;;;;;;16.30;65.00;;;;;;10305196;28;19936;-66
2022/12/03 01:36:57;;;;;;;;;;;16.20;65.00;;;;;;10305822;28;20321;-66
2022/12/03 01:41:58;;;;;;;;;;;16.20;65.10;;;;;;10304155;28;20025;-66
2022/12/03 01:47:01;;;;;;;;;;;16.20;65.20;;;;;;10304625;28;19969;-66
2022/12/03 01:52:03;;;;;;;;;;;16.20;65.10;;;;;;10304330;28;20504;-66
2022/12/03 01:57:12;;;;;;;;;;;16.10;65.20;;;;;;10304656;28;20548;-66
2022/12/03 02:07:24;;;;;;;;;;;16.10;65.10;;;;;;10300037;28;19940;-65
2022/12/03 02:12:47;;;;;;;;;;;16.00;65.10;;;;;;10304355;28;19934;-65
2022/12/03 02:17:49;;;;;;;;;;;16.10;65.40;;;;;;10303435;28;20073;-65
2022/12/03 02:23:09;;;;;;;;;;;16.10;65.40;;;;;;10304177;28;20036;-66
2022/12/03 02:28:11;;;;;;;;;;;16.10;65.40;;;;;;10303709;28;19934;-65
2022/12/03 02:33:13;;;;;;;;;;;16.10;65.20;;;;;;10303573;28;20057;-66
2022/12/03 02:38:17;;;;;;;;;;;16.10;65.20;;;;;;10303922;28;20544;-66
2022/12/03 02:43:19;;;;;;;;;;;16.10;65.30;;;;;;10317410;28;19989;-65
2022/12/03 02:48:24;;;;;;;;;;;16.10;66.30;;;;;;10303225;28;19941;-65
2022/12/03 02:53:29;;;;;;;;;;;16.10;65.40;;;;;;10302040;28;19934;-65
2022/12/03 02:58:31;;;;;;;;;;;16.10;65.40;;;;;;10302538;28;19966;-65
2022/12/03 03:03:34;;;;;;;;;;;16.10;65.50;;;;;;10300470;28;20077;-66
2022/12/03 03:08:36;;;;;;;;;;;16.10;65.40;;;;;;10297033;28;20100;-66
2022/12/03 03:13:38;;;;;;;;;;;16.00;65.40;;;;;;10298556;28;19934;-65
2022/12/03 03:18:40;;;;;;;;;;;16.00;65.00;;;;;;10298464;28;20042;-65
2022/12/03 03:23:41;;;;;;;;;;;16.00;65.10;;;;;;10301920;28;20130;-65
2022/12/03 03:28:47;;;;;;;;;;;16.00;65.10;;;;;;10301649;28;20016;-65
2022/12/03 03:33:49;;;;;;;;;;;16.00;65.10;;;;;;10300361;28;20361;-65
2022/12/03 03:38:51;;;;;;;;;;;15.90;65.00;;;;;;10301512;28;19941;-65
2022/12/03 03:43:53;;;;;;;;;;;15.90;65.00;;;;;;10300713;28;20377;-65
2022/12/03 03:48:55;;;;;;;;;;;15.90;65.30;;;;;;10300500;28;20314;-65
2022/12/03 03:53:56;;;;;;;;;;;15.90;65.40;;;;;;10301149;28;20025;-65
2022/12/03 03:58:58;;;;;;;;;;;16.00;65.30;;;;;;10300580;28;19938;-65
2022/12/03 04:04:00;;;;;;;;;;;16.00;65.30;;;;;;10300366;28;19935;-65
2022/12/03 04:09:02;;;;;;;;;;;16.00;65.30;;;;;;10298500;28;19942;-65
2022/12/03 04:14:03;;;;;;;;;;;16.00;65.40;;;;;;10298983;28;19934;-66
2022/12/03 04:19:05;;;;;;;;;;;15.90;65.20;;;;;;10300360;28;20057;-65
2022/12/03 04:24:08;;;;;;;;;;;16.00;65.30;;;;;;10300045;28;19935;-65
2022/12/03 04:29:10;;;;;;;;;;;16.00;65.30;;;;;;10303618;28;19941;-65
2022/12/03 04:39:32;;;;;;;;;;;15.90;65.40;;;;;;10307319;28;19934;-65
2022/12/03 04:44:37;;;;;;;;;;;15.90;65.20;;;;;;10306987;28;19941;-65
2022/12/03 04:49:40;;;;;;;;;;;15.90;64.90;;;;;;10307179;28;19977;-66
2022/12/03 04:54:42;;;;;;;;;;;15.90;65.00;;;;;;10305685;28;19934;-65
2022/12/03 04:59:43;;;;;;;;;;;15.80;65.10;;;;;;10305927;28;20029;-65
2022/12/03 05:04:45;;;;;;;;;;;15.80;65.10;;;;;;10305899;28;20029;-65
2022/12/03 05:09:47;;;;;;;;;;;15.80;65.10;;;;;;10305834;28;19986;-66
2022/12/03 05:14:49;;;;;;;;;;;15.80;65.30;;;;;;10304545;28;20441;-66
2022/12/03 05:25:11;;;;;;;;;;;15.80;65.30;;;;;;10306138;28;20697;-66
2022/12/03 05:30:13;;;;;;;;;;;15.80;65.10;;;;;;10305229;28;20123;-65
2022/12/03 05:35:15;;;;;;;;;;;15.90;65.10;;;;;;10303265;28;20352;-66
2022/12/03 05:40:16;;;;;;;;;;;15.90;65.10;;;;;;10304030;28;19941;-67
2022/12/03 05:45:19;;;;;;;;;;;16.00;65.10;;;;;;10304656;28;20009;-67
2022/12/03 05:50:22;;;;;;;;;;;16.10;66.10;;;;;;10304621;28;19960;-66
2022/12/03 05:55:24;;;;;;;;;;;16.20;64.90;;;;;;10300846;28;19941;-66
2022/12/03 06:00:28;;;;;;;;;;;16.30;64.70;;;;;;10303285;28;20389;-68
2022/12/03 06:05:30;;;;;;;;;;;16.30;64.40;;;;;;10286090;28;20030;-66
2022/12/03 06:10:31;;;;;;;;;;;16.40;64.30;;;;;;10302402;28;19934;-66
2022/12/03 06:15:33;;;;;;;;;;;16.40;64.20;;;;;;10302488;28;19940;-67
2022/12/03 06:20:43;;;;;;;;;;;16.50;64.10;;;;;;10303429;28;19935;-67
2022/12/03 06:25:45;;;;;;;;;;;16.70;63.90;;;;;;10303663;28;19941;-67
2022/12/03 06:30:47;;;;;;;;;;;16.80;63.60;;;;;;10302845;28;20021;-65
2022/12/03 06:35:48;;;;;;;;;;;16.90;63.50;;;;;;10302136;28;20668;-66
2022/12/03 06:40:50;;;;;;;;;;;17.00;63.10;;;;;;10300984;28;19969;-66
2022/12/03 06:45:52;;;;;;;;;;;17.00;63.10;;;;;;10316392;28;19973;-66
2022/12/03 06:50:54;;;;;;;;;;;17.10;63.20;;;;;;10301554;28;20033;-67
2022/12/03 06:55:56;;;;;;;;;;;17.00;63.30;;;;;;10300364;28;19934;-66
2022/12/03 07:00:58;;;;;;;;;;;17.10;63.30;;;;;;10302082;28;19934;-66
2022/12/03 07:06:00;;;;;;;;;;;17.20;63.30;;;;;;10301532;28;20763;-66
2022/12/03 07:11:02;;;;;;;;;;;17.20;63.30;;;;;;10300806;28;19934;-66
2022/12/03 07:16:03;;;;;;;;;;;17.20;63.30;;;;;;10301570;28;19934;-66
2022/12/03 07:21:05;;;;;;;;;;;17.10;63.50;;;;;;10301970;28;19958;-65
2022/12/03 07:26:07;;;;;;;;;;;17.20;63.60;;;;;;10301721;28;20021;-66
2022/12/03 07:31:08;;;;;;;;;;;17.30;63.50;;;;;;10298459;28;19941;-67
2022/12/03 07:36:10;;;;;;;;;;;17.40;63.40;;;;;;10300897;28;19985;-67
2022/12/03 07:41:12;;;;;;;;;;;17.40;63.20;;;;;;10300379;28;20038;-66
2022/12/03 07:46:14;;;;;;;;;;;17.40;63.30;;;;;;10299211;28;20045;-68
2022/12/03 07:51:16;;;;;;;;;;;17.40;63.40;;;;;;10301179;28;19935;-67
2022/12/03 07:56:18;;;;;;;;;;;17.30;63.60;;;;;;10301034;28;20029;-66
2022/12/03 08:01:19;;;;;;;;;;;17.20;63.90;;;;;;10299804;28;19941;-68
2022/12/03 08:06:21;;;;;;;;;;;17.30;64.20;;;;;;10300606;28;20393;-65
2022/12/03 08:11:23;;;;;;;;;;;17.30;64.20;;;;;;10315685;28;20025;-67
2022/12/03 08:16:29;;;;;;;;;;;17.40;64.30;;;;;;10299683;28;19938;-66
2022/12/03 08:21:33;;;;;;;;;;;17.50;64.40;;;;;;10300153;28;19943;-66
2022/12/03 08:26:34;;;;;;;;;;;17.50;64.70;;;;;;10300932;28;19934;-69
2022/12/03 08:31:36;;;;;;;;;;;17.50;64.70;;;;;;10300368;28;19935;-66
2022/12/03 08:36:38;;;;;;;;;;;17.50;65.30;;;;;;10298826;28;19943;-66
2022/12/03 08:47:09;;;;;;;;;;;17.30;65.00;;;;;;10299684;28;19935;-67
2022/12/03 08:52:13;;;;;;;;;;;17.30;65.00;;;;;;10298283;28;20021;-67
2022/12/03 08:57:18;;;;;;;;;;;17.30;64.80;;;;;;10295141;28;20423;-66
2022/12/03 09:02:25;;;;;;;;;;;17.40;64.30;;;;;;10294998;28;19934;-66
2022/12/03 09:07:27;;;;;;;;;;;17.30;64.20;;;;;;10294779;28;20437;-66
2022/12/03 09:12:28;;;;;;;;;;;17.30;64.00;;;;;;10295503;28;20510;-67
2022/12/03 09:17:30;;;;;;;;;;;17.30;64.10;;;;;;10302736;28;20037;-67
2022/12/03 09:22:32;;;;;;;;;;;17.20;64.10;;;;;;10304044;28;20013;-67
2022/12/03 09:27:34;;;;;;;;;;;17.10;64.20;;;;;;10301595;28;20445;-66
2022/12/03 09:32:35;;;;;;;;;;;17.00;64.20;;;;;;10302985;28;20037;-67
2022/12/03 09:37:37;;;;;;;;;;;16.90;64.30;;;;;;10303215;28;20328;-68
2022/12/03 09:42:39;;;;;;;;;;;16.80;64.40;;;;;;10302362;28;19934;-67
2022/12/03 09:47:42;;;;;;;;;;;16.80;64.50;;;;;;10302382;28;19935;-67
2022/12/03 09:52:45;;;;;;;;;;;16.70;64.50;;;;;;10301834;28;20096;-66
2022/12/03 09:57:47;;;;;;;;;;;16.70;64.60;;;;;;10302135;28;20436;-67
2022/12/03 10:02:50;;;;;;;;;;;16.60;65.70;;;;;;9772343;28;15741929;-66
2022/12/03 10:07:52;;;;;;;;;;;16.60;65.30;;;;;;10285559;28;20021;-67
2022/12/03 10:12:54;;;;;;;;;;;16.50;64.90;;;;;;10303491;28;20021;-66
2022/12/03 10:17:56;;;;;;;;;;;16.50;64.80;;;;;;10303859;28;19934;-66
2022/12/03 10:22:58;;;;;;;;;;;16.50;64.70;;;;;;10302002;28;19930;-67
2022/12/03 10:28:02;;;;;;;;;;;16.50;64.60;;;;;;10302648;28;20029;-66
2022/12/03 10:33:12;;;;;;;;;;;16.60;64.60;;;;;;10303391;28;19941;-67
2022/12/03 10:38:21;;;;;;;;;;;16.70;64.40;;;;;;10304536;28;19977;-67
2022/12/03 10:43:23;;;;;;;;;;;16.90;64.20;;;;;;10303199;28;19965;-68
2022/12/03 10:48:26;;;;;;;;;;;17.00;63.80;;;;;;10303430;28;20378;-67
2022/12/03 10:53:29;;;;;;;;;;;17.10;63.50;;;;;;10302882;28;20383;-67
2022/12/03 10:58:35;;;;;;;;;;;17.10;63.30;;;;;;10302030;28;19931;-67
2022/12/03 11:03:37;;;;;;;;;;;17.10;63.20;;;;;;10301799;28;20001;-67
2022/12/03 11:08:40;;;;;;;;;;;17.00;63.10;;;;;;10302235;28;19934;-67
2022/12/03 11:13:44;;;;;;;;;;;17.10;63.30;;;;;;10301831;28;19931;-66
2022/12/03 11:18:48;;;;;;;;;;;17.00;63.30;;;;;;10301684;28;20017;-66
2022/12/03 11:23:50;;;;;;;;;;;16.90;63.30;;;;;;10301866;28;20025;-66
2022/12/03 11:28:55;;;;;;;;;;;16.80;63.40;;;;;;10301652;28;19977;-66
2022/12/03 11:34:16;;;;;;;;;;;16.80;63.50;;;;;;10301670;28;20324;-66
2022/12/03 11:39:37;;;;;;;;;;;16.70;63.40;;;;;;10301227;28;19937;-66
2022/12/03 11:44:39;;;;;;;;;;;16.60;63.40;;;;;;10301648;28;20021;-66
2022/12/03 11:49:45;;;;;;;;;;;16.60;63.50;;;;;;10300593;28;19953;-66
2022/12/03 11:54:55;;;;;;;;;;;16.50;63.60;;;;;;10300449;28;20532;-66
2022/12/03 11:59:57;;;;;;;;;;;16.50;63.70;;;;;;10299479;28;19936;-66
2022/12/03 12:05:14;;;;;;;;;;;16.40;63.80;;;;;;10283000;28;20341;-66
2022/12/03 12:10:35;;;;;;;;;;;16.50;63.80;;;;;;10300520;28;20389;-66
2022/12/03 12:15:42;;;;;;;;;;;16.50;63.70;;;;;;10300208;28;20452;-66
2022/12/03 12:20:44;;;;;;;;;;;16.60;63.60;;;;;;10301651;28;19962;-65
2022/12/03 12:25:46;;;;;;;;;;;16.80;63.50;;;;;;10300191;28;19930;-66
2022/12/03 12:30:54;;;;;;;;;;;16.90;63.30;;;;;;10300808;28;19931;-67
2022/12/03 12:35:56;;;;;;;;;;;17.00;62.90;;;;;;10300299;28;19931;-66
2022/12/03 12:41:01;;;;;;;;;;;17.10;62.60;;;;;;10299988;28;19937;-67
2022/12/03 12:46:10;;;;;;;;;;;17.10;62.40;;;;;;10299963;28;19988;-66
2022/12/03 12:51:32;;;;;;;;;;;17.10;62.30;;;;;;10304880;28;20250;-66
2022/12/03 12:56:33;;;;;;;;;;;17.00;62.30;;;;;;10307064;28;19947;-66
2022/12/03 13:01:35;;;;;;;;;;;17.00;62.50;;;;;;10306108;28;19957;-65
2022/12/03 13:06:37;;;;;;;;;;;16.90;62.60;;;;;;10305736;28;19930;-66
2022/12/03 13:11:41;;;;;;;;;;;16.80;62.70;;;;;;10305789;28;20828;-65
2022/12/03 13:16:43;;;;;;;;;;;16.80;62.80;;;;;;10305624;28;20464;-66
2022/12/03 13:21:45;;;;;;;;;;;16.80;62.70;;;;;;10305492;28;20036;-66
2022/12/03 13:26:46;;;;;;;;;;;17.00;62.70;;;;;;10305989;28;19931;-66
2022/12/03 13:31:51;;;;;;;;;;;17.10;62.50;;;;;;10302812;28;20021;-66
2022/12/03 13:36:53;;;;;;;;;;;17.20;62.10;;;;;;10303910;28;19930;-67
2022/12/03 13:47:12;;;;;;;;;;;17.40;60.50;;;;;;10473049;27;87815;-66
2022/12/03 13:52:18;;;;;;;;;;;17.50;61.40;;;;;;10452625;27;87995;-65
2022/12/03 13:57:19;;;;;;;;;;;17.50;61.60;;;;;;10468246;27;88239;-65
2022/12/03 14:02:21;;;;;;;;;;;17.50;61.70;;;;;;10452978;27;88032;-65
2022/12/03 14:07:23;;;;;;;;;;;17.50;63.30;;;;;;10433820;27;89225;-66
2022/12/03 14:12:24;;;;;;;;;;;17.40;62.40;;;;;;10451973;27;89182;-66
2022/12/03 14:17:26;;;;;;;;;;;17.40;62.80;;;;;;10452505;27;87786;-66
2022/12/03 14:22:29;;;;;;;;;;;17.30;63.10;;;;;;10449344;27;89393;-66
2022/12/03 14:27:30;;;;;;;;;;;17.30;63.30;;;;;;10431821;27;88175;-66
2022/12/03 14:32:32;;;;;;;;;;;17.30;63.40;;;;;;10453836;27;88155;-66
2022/12/03 14:37:34;;;;;;;;;;;17.40;62.80;;;;;;10454628;27;89253;-66
2022/12/03 14:42:36;;;;;;;;;;;17.50;62.50;;;;;;10466354;27;89250;-67
2022/12/03 14:47:37;;;;;;;;;;;17.60;62.40;;;;;;10450437;27;88258;-66
2022/12/03 14:52:39;;;;;;;;;;;17.70;62.30;;;;;;10451093;27;89353;-66
2022/12/03 14:57:41;;;;;;;;;;;17.60;62.30;;;;;;10425613;27;88211;-66
2022/12/03 15:02:42;;;;;;;;;;;17.60;62.40;;;;;;10421254;28;88271;-64
2022/12/03 15:07:44;;;;;;;;;;;17.60;62.40;;;;;;10421451;28;88260;-65
2022/12/03 15:12:46;;;;;;;;;;;17.60;62.40;;;;;;10421333;28;88246;-65
2022/12/03 15:17:48;;;;;;;;;;;17.50;62.50;;;;;;10420458;27;90322;-65
2022/12/03 15:22:49;;;;;;;;;;;17.50;62.40;;;;;;10421547;28;88022;-66
2022/12/03 15:27:51;;;;;;;;;;;17.40;62.40;;;;;;10420382;28;88294;-63
2022/12/03 15:32:53;;;;;;;;;;;17.50;62.50;;;;;;10420777;27;89980;-63
2022/12/03 15:37:55;;;;;;;;;;;17.60;62.50;;;;;;10402464;28;89070;-65
2022/12/03 15:42:56;;;;;;;;;;;17.70;62.30;;;;;;10420061;28;88132;-66
2022/12/03 15:47:59;;;;;;;;;;;17.70;64.60;;;;;;10420364;28;88467;-65
2022/12/03 15:53:00;;;;;;;;;;;17.80;64.50;;;;;;10419375;28;87428;-65
2022/12/03 15:58:02;;;;;;;;;;;17.80;64.50;;;;;;10433804;27;88294;-64
2022/12/03 16:03:04;;;;;;;;;;;17.80;64.40;;;;;;10415554;27;89313;-62
2022/12/03 16:08:06;;;;;;;;;;;17.80;64.80;;;;;;10415194;28;88300;-63
2022/12/03 16:13:07;;;;;;;;;;;17.90;67.10;;;;;;10415745;28;89271;-63
2022/12/03 16:18:09;;;;;;;;;;;18.20;68.70;;;;;;10418827;28;89233;-62
2022/12/03 16:23:11;;;;;;;;;;;18.40;66.50;;;;;;10417839;28;88338;-63
2022/12/03 16:28:13;;;;;;;;;;;18.50;63.60;;;;;;10418544;28;88293;-63
2022/12/03 16:33:14;;;;;;;;;;;18.70;63.00;;;;;;10417814;28;88242;-64
2022/12/03 16:38:16;;;;;;;;;;;18.80;62.40;;;;;;10432527;27;87682;-64
2022/12/03 16:43:18;;;;;;;;;;;18.80;62.50;;;;;;10418492;28;89419;-64
2022/12/03 16:48:20;;;;;;;;;;;18.70;62.50;;;;;;10433237;27;87573;-64
2022/12/03 16:53:21;;;;;;;;;;;18.80;63.60;;;;;;10417983;28;88144;-63
2022/12/03 16:58:23;;;;;;;;;;;18.80;63.80;;;;;;10417963;28;89242;-64
2022/12/03 17:03:25;;;;;;;;;;;18.90;64.60;;;;;;10417099;28;87671;-64
2022/12/03 17:08:34;;;;;;;;;;;18.80;64.50;;;;;;10431072;27;89206;-63
2022/12/03 17:13:36;;;;;;;;;;;18.90;64.80;;;;;;10415862;28;88219;-64
2022/12/03 17:18:37;;;;;;;;;;;18.70;64.60;;;;;;10416712;28;89373;-64
2022/12/03 17:23:39;;;;;;;;;;;18.70;65.20;;;;;;10417407;28;89368;-63
2022/12/03 17:28:41;;;;;;;;;;;18.60;65.50;;;;;;10415308;28;88312;-63
2022/12/03 17:33:42;;;;;;;;;;;18.50;65.80;;;;;;10416193;28;88342;-64
2022/12/03 17:38:44;;;;;;;;;;;18.40;66.30;;;;;;10417440;28;89317;-63
2022/12/03 17:43:46;;;;;;;;;;;18.40;67.40;;;;;;10415327;28;88609;-64
2022/12/03 17:48:48;;;;;;;;;;;18.30;67.50;;;;;;10416610;28;88530;-66
2022/12/03 17:53:50;;;;;;;;;;;18.30;67.80;;;;;;10415817;28;88272;-65
2022/12/03 17:58:51;;;;;;;;;;;18.20;67.60;;;;;;10416018;28;87668;-65
2022/12/03 18:03:53;;;;;;;;;;;18.30;67.40;;;;;;10415324;28;88278;-66
2022/12/03 18:08:55;;;;;;;;;;;18.20;67.50;;;;;;10415225;28;89102;-65
2022/12/03 18:13:57;;;;;;;;;;;18.20;67.50;;;;;;10414465;28;88262;-65
2022/12/03 18:18:59;;;;;;;;;;;18.10;67.60;;;;;;10397211;28;89220;-65
2022/12/03 18:24:07;;;;;;;;;;;18.10;67.70;;;;;;10414584;28;88497;-65
2022/12/03 18:29:08;;;;;;;;;;;18.10;67.70;;;;;;10417124;27;89393;-64
2022/12/03 18:34:10;;;;;;;;;;;18.10;67.90;;;;;;10405053;28;88756;-65
2022/12/03 18:39:21;;;;;;;;;;;18.00;67.90;;;;;;10421089;28;88328;-65
2022/12/03 18:44:24;;;;;;;;;;;18.00;68.10;;;;;;10422530;28;90766;-65
2022/12/03 18:49:25;;;;;;;;;;;18.00;68.20;;;;;;10404237;28;88318;-65
2022/12/03 18:54:27;;;;;;;;;;;18.00;68.40;;;;;;10422184;27;88172;-65
2022/12/03 18:59:29;;;;;;;;;;;18.00;68.70;;;;;;10404368;28;89786;-64
2022/12/03 19:04:31;;;;;;;;;;;17.90;68.70;;;;;;10421076;28;88240;-64
2022/12/03 19:09:33;;;;;;;;;;;17.90;68.90;;;;;;10422027;28;88609;-65
2022/12/03 19:14:34;;;;;;;;;;;17.90;69.10;;;;;;10420872;28;89317;-64
2022/12/03 19:19:36;;;;;;;;;;;18.00;68.90;;;;;;10420773;28;89156;-64
2022/12/03 19:24:38;;;;;;;;;;;17.90;68.60;;;;;;10435750;27;89145;-64
2022/12/03 19:29:39;;;;;;;;;;;18.00;68.70;;;;;;10420698;28;89257;-66
2022/12/03 19:34:41;;;;;;;;;;;17.90;68.00;;;;;;10419984;28;88226;-64
2022/12/03 19:39:43;;;;;;;;;;;17.90;68.00;;;;;;10419592;27;89441;-65
2022/12/03 19:44:44;;;;;;;;;;;17.90;68.00;;;;;;10420364;28;88275;-65
2022/12/03 19:49:46;;;;;;;;;;;17.90;69.40;;;;;;10419170;28;88256;-64
2022/12/03 19:54:48;;;;;;;;;;;17.90;68.80;;;;;;10419558;28;89734;-65
2022/12/03 19:59:49;;;;;;;;;;;17.90;68.70;;;;;;10435105;27;88648;-65
2022/12/03 20:04:51;;;;;;;;;;;18.00;68.70;;;;;;10418790;28;87910;-65
2022/12/03 20:09:53;;;;;;;;;;;18.00;68.60;;;;;;10419728;28;89681;-65
2022/12/03 20:14:55;;;;;;;;;;;18.00;68.60;;;;;;10419555;28;89227;-65
2022/12/03 20:19:59;;;;;;;;;;;18.00;68.50;;;;;;10417995;28;88409;-66
2022/12/03 20:25:02;;;;;;;;;;;17.90;68.50;;;;;;10418837;28;89070;-65
2022/12/03 20:30:04;;;;;;;;;;;18.00;68.30;;;;;;10434158;27;88364;-67
2022/12/03 20:35:06;;;;;;;;;;;18.00;68.00;;;;;;10418179;28;88325;-67
2022/12/03 20:40:08;;;;;;;;;;;17.90;68.00;;;;;;10417975;28;89257;-67
2022/12/03 20:45:10;;;;;;;;;;;17.90;68.00;;;;;;10417339;28;89282;-66
2022/12/03 20:50:11;;;;;;;;;;;17.90;68.00;;;;;;10417815;28;88254;-67
2022/12/03 20:55:13;;;;;;;;;;;18.00;68.10;;;;;;10416900;27;88848;-65
2022/12/03 21:00:15;;;;;;;;;;;18.10;68.10;;;;;;10416785;28;88334;-65
2022/12/03 21:05:17;;;;;;;;;;;18.20;67.70;;;;;;10418013;28;89344;-65
2022/12/03 21:10:34;;;;;;;;;;;18.30;67.40;;;;;;10398426;28;88127;-66
2022/12/03 21:15:36;;;;;;;;;;;18.30;67.20;;;;;;10417356;28;87819;-66
2022/12/03 21:20:38;;;;;;;;;;;18.20;67.10;;;;;;10417973;28;89233;-66
2022/12/03 21:25:40;;;;;;;;;;;18.20;67.10;;;;;;10417040;28;88849;-66
2022/12/03 21:30:42;;;;;;;;;;;18.20;67.30;;;;;;10432111;27;89799;-65
2022/12/03 21:35:43;;;;;;;;;;;18.10;67.30;;;;;;10417601;28;88520;-65
2022/12/03 21:40:46;;;;;;;;;;;18.00;67.40;;;;;;10417182;28;89291;-65
2022/12/03 21:45:48;;;;;;;;;;;17.90;67.70;;;;;;10416762;28;88616;-65
2022/12/03 21:50:58;;;;;;;;;;;17.80;67.80;;;;;;10417241;28;88872;-65
2022/12/03 21:56:03;;;;;;;;;;;17.80;67.90;;;;;;10415396;28;88234;-65
2022/12/03 22:01:18;;;;;;;;;;;17.70;67.90;;;;;;10432066;27;89363;-66
2022/12/03 22:06:20;;;;;;;;;;;17.70;67.90;;;;;;10419951;27;88188;-66
2022/12/03 22:11:22;;;;;;;;;;;17.60;67.90;;;;;;10422895;28;89430;-66
2022/12/03 22:16:24;;;;;;;;;;;17.60;68.10;;;;;;10423812;28;89069;-66
2022/12/03 22:21:26;;;;;;;;;;;17.50;68.20;;;;;;10422169;28;89130;-66
2022/12/03 22:26:28;;;;;;;;;;;17.50;68.30;;;;;;10422738;27;89101;-66
2022/12/03 22:31:29;;;;;;;;;;;17.40;68.30;;;;;;10421107;28;89981;-65
2022/12/03 22:36:31;;;;;;;;;;;17.30;68.20;;;;;;10421790;28;90206;-66
2022/12/03 22:41:33;;;;;;;;;;;17.30;68.00;;;;;;10421846;28;90146;-66
2022/12/03 22:46:35;;;;;;;;;;;17.20;67.70;;;;;;10420893;28;88920;-66
2022/12/03 22:51:36;;;;;;;;;;;17.10;67.50;;;;;;10421963;28;90042;-65
2022/12/03 22:56:38;;;;;;;;;;;17.10;67.30;;;;;;10437904;27;89695;-66
2022/12/03 23:01:40;;;;;;;;;;;17.00;67.20;;;;;;10421205;28;90072;-66
2022/12/03 23:06:42;;;;;;;;;;;17.00;67.10;;;;;;10420937;28;87795;-66
2022/12/03 23:11:44;;;;;;;;;;;16.90;67.20;;;;;;10420099;28;89446;-66
2022/12/03 23:16:46;;;;;;;;;;;16.80;67.00;;;;;;10420066;27;89989;-66
2022/12/03 23:21:48;;;;;;;;;;;16.80;67.00;;;;;;10420287;28;89866;-66
2022/12/03 23:26:49;;;;;;;;;;;16.70;66.70;;;;;;10420750;28;90031;-65
2022/12/03 23:31:51;;;;;;;;;;;16.70;66.30;;;;;;10420011;28;89025;-65
2022/12/03 23:36:53;;;;;;;;;;;16.60;66.50;;;;;;10420151;28;89539;-65
2022/12/03 23:41:55;;;;;;;;;;;16.60;66.30;;;;;;10419363;28;89020;-65
2022/12/03 23:46:56;;;;;;;;;;;16.50;66.20;;;;;;10419447;28;88991;-65
2022/12/03 23:51:58;;;;;;;;;;;16.50;66.30;;;;;;10420446;28;88843;-65
2022/12/03 23:57:00;;;;;;;;;;;16.50;67.30;;;;;;10420630;28;89315;-64
